フォークランド諸島 の空港の天気 - METARとTAF

マウント・プレザント空軍基地 ( EGYP / MPN ) - フォークランド諸島 フォークランド諸島
飛行場実況気象(Metar)
観測時間04/26 07:50 FKST (04/26 10:50 UTC)
風向・風速南西 4m/s
視程1200m
天気現象雨 霧雨
少しの雲 雲底高度 不明
全天の8割程度の雲 雲底高度 60m
気温8℃
湿度100%
気圧997hPa
METAREGYP 261050Z 22007KT 1200 RADZ FEW000 BKN002 08/08 Q0997 AMB TEMPO 3000 -RADZ BKN003 YLO2
過去の天気等 Google飛行場航空写真 Wunderground天気予報

過去48時間のMETAR

飛行場予報(TAF)
発表時間: 4/26 06:05 FKST (4/26 09:05 UTC)
予報対象時間: 26日6時 FKST ~ 27日0時 FKST
風向・風速不定 4m/s
視程10km以上
全天の8割程度の雲 雲底高度 240m
26日6時 FKST ~ 26日24時 FKST に一時的に
視程2,000m
天気現象雨霧雨 もや
全天の4割程度の雲 雲底高度 120m
26日6時 FKST ~ 26日15時 FKST に 確率 40% で一時的に
視程1,200m
天気現象弱い霧雨
全天の4割程度の雲 雲底高度 60m
26日6時 FKST ~ 26日12時 FKST に 確率 30% で一時的に
視程700m
天気現象
全天の8割程度の雲 雲底高度 30m
26日9時 FKST ~ 26日12時 FKST に徐々に
風向・風速南東 9m/s 瞬間風速 14m/s
26日18時 FKST ~ 26日21時 FKST に徐々に
風向・風速東 10m/s 瞬間風速 15m/s
TAF AMD EGYP 260905Z 2609/2703 VRB07KT 9999 BKN008
TEMPO 2609/2703 2000 RADZ BR SCT004
PROB40 TEMPO 2609/2618 1200 -DZ SCT002
PROB30 TEMPO 2609/2615 0700 FG BKN001
BECMG 2612/2615 13018G28KT
BECMG 2621/2624 08020G30KT